createdAt,value
2018-12-17T00:00:56.347Z,98032.54
2018-12-17T00:03:27.158Z,98027.73
2018-12-17T00:05:58.052Z,98022.66
2018-12-17T00:08:31.996Z,98027.48
2018-12-17T00:10:58.554Z,98024.80
2018-12-17T00:13:27.450Z,98022.66
2018-12-17T00:15:56.298Z,98032.56
2018-12-17T00:18:25.278Z,98034.70
2018-12-17T00:20:54.173Z,98039.52
2018-12-17T00:23:23.002Z,98043.51
2018-12-17T00:25:53.806Z,98048.62
2018-12-17T00:28:22.780Z,98047.28
2018-12-17T00:30:52.387Z,98048.08
2018-12-17T00:33:22.564Z,98045.39
2018-12-17T00:35:52.430Z,98049.14
2018-12-17T00:38:21.301Z,98051.28
2018-12-17T00:40:50.245Z,98048.07
2018-12-17T00:43:19.087Z,98054.22
2018-12-17T00:45:48.127Z,98049.14
2018-12-17T00:48:17.115Z,98054.22
2018-12-17T00:50:47.083Z,98055.03
2018-12-17T00:53:15.945Z,98058.23
2018-12-17T00:55:44.876Z,98061.98
2018-12-17T00:58:15.297Z,98054.49
2018-12-17T01:00:44.413Z,98069.48
2018-12-17T01:03:13.247Z,98060.38
2018-12-17T01:05:42.187Z,98060.38
2018-12-17T01:08:11.039Z,98061.45
2018-12-17T01:10:40.031Z,98070.00
2018-12-17T01:13:08.871Z,98074.56
2018-12-17T01:15:38.075Z,98071.88
2018-12-17T01:18:06.907Z,98076.70
2018-12-17T01:20:35.747Z,98077.50
2018-12-17T01:23:04.635Z,98076.69
2018-12-17T01:25:33.599Z,98073.76
2018-12-17T01:28:02.491Z,98076.70
2018-12-17T01:30:31.630Z,98082.58
2018-12-17T01:33:01.548Z,98087.66
2018-12-17T01:35:30.560Z,98092.75
2018-12-17T01:37:59.410Z,98089.00
2018-12-17T01:40:28.310Z,98088.19
2018-12-17T01:42:57.144Z,98088.19
2018-12-17T01:45:26.066Z,98089.81
2018-12-17T01:47:54.898Z,98087.67
2018-12-17T01:50:23.732Z,98089.55
2018-12-17T01:52:52.640Z,98084.99
2018-12-17T01:55:21.485Z,98085.26
2018-12-17T01:57:50.475Z,98082.59
2018-12-17T02:00:19.501Z,98095.43
2018-12-17T02:02:48.399Z,98092.76
2018-12-17T02:05:17.387Z,98097.30
2018-12-17T02:07:46.297Z,98092.21
2018-12-17T02:10:15.222Z,98083.65
2018-12-17T02:12:44.048Z,98080.45
2018-12-17T02:15:12.995Z,98086.34
2018-12-17T02:17:41.837Z,98076.70
2018-12-17T02:20:10.671Z,98076.97
2018-12-17T02:22:39.641Z,98078.30
2018-12-17T02:25:08.575Z,98077.77
2018-12-17T02:27:37.504Z,98074.83
2018-12-17T02:30:06.910Z,98070.27
2018-12-17T02:32:37.843Z,98074.02
2018-12-17T02:35:06.834Z,98073.20
2018-12-17T02:37:35.752Z,98074.81
2018-12-17T02:40:05.638Z,98074.81
2018-12-17T02:42:34.577Z,98082.85
2018-12-17T02:45:03.520Z,98089.27
2018-12-17T02:47:32.451Z,98084.45
2018-12-17T02:50:01.423Z,98085.52
2018-12-17T02:52:30.261Z,98084.70
2018-12-17T02:54:59.172Z,98090.06
2018-12-17T02:57:28.083Z,98091.14
2018-12-17T02:59:56.919Z,98093.28
2018-12-17T03:02:25.851Z,98093.28
2018-12-17T03:04:54.763Z,98088.73
2018-12-17T03:07:23.654Z,98087.12
2018-12-17T03:09:52.594Z,98093.55
2018-12-17T03:12:21.534Z,98094.63
2018-12-17T03:14:50.425Z,98094.62
2018-12-17T03:17:19.430Z,98095.95
2018-12-17T03:19:48.376Z,98099.17
2018-12-17T03:22:17.327Z,98102.91
2018-12-17T03:24:46.172Z,98100.77
2018-12-17T03:27:15.446Z,98097.83
2018-12-17T03:29:44.411Z,98105.61
2018-12-17T03:32:13.271Z,98102.92
2018-12-17T03:34:42.192Z,98109.09
2018-12-17T03:37:11.052Z,98112.30
2018-12-17T03:39:39.894Z,98111.75
2018-12-17T03:42:08.910Z,98114.42
2018-12-17T03:44:37.906Z,98109.88
2018-12-17T03:47:06.748Z,98113.64
2018-12-17T03:49:35.606Z,98114.14
2018-12-17T03:52:04.520Z,98119.23
2018-12-17T03:54:33.523Z,98116.30
2018-12-17T03:57:02.534Z,98112.81
2018-12-17T03:59:31.441Z,98113.64
2018-12-17T04:02:00.336Z,98117.39
2018-12-17T04:04:29.253Z,98123.00
2018-12-17T04:06:58.088Z,98120.86
2018-12-17T04:09:27.001Z,98116.84
2018-12-17T04:11:55.878Z,98120.32
2018-12-17T04:14:24.986Z,98128.08
2018-12-17T04:16:53.925Z,98137.18
2018-12-17T04:19:22.842Z,98127.55
2018-12-17T04:21:52.992Z,98131.83
2018-12-17T04:24:22.062Z,98130.77
2018-12-17T04:26:52.199Z,98136.11
2018-12-17T04:29:22.094Z,98141.47
2018-12-17T04:31:50.912Z,98153.52
2018-12-17T04:34:20.847Z,98160.47
2018-12-17T04:36:49.824Z,98159.67
2018-12-17T04:39:18.705Z,98162.08
2018-12-17T04:41:47.630Z,98167.43
2018-12-17T04:44:16.698Z,98162.34
2018-12-17T04:46:45.537Z,98157.25
2018-12-17T04:49:14.410Z,98155.38
2018-12-17T04:51:43.558Z,98158.59
2018-12-17T04:54:12.419Z,98161.80
2018-12-17T04:56:41.292Z,98159.66
2018-12-17T04:59:14.494Z,98165.29
2018-12-17T05:01:41.009Z,98165.81
2018-12-17T05:04:09.888Z,98171.17
2018-12-17T05:06:38.785Z,98176.53
2018-12-17T05:09:08.535Z,98175.45
2018-12-17T05:11:37.387Z,98181.08
2018-12-17T05:14:06.248Z,98178.94
2018-12-17T05:16:35.123Z,98184.03
2018-12-17T05:19:04.419Z,98184.03
2018-12-17T05:21:34.207Z,98191.79
2018-12-17T05:24:03.069Z,98196.89
2018-12-17T05:26:31.954Z,98203.33
2018-12-17T05:29:00.820Z,98206.27
2018-12-17T05:31:29.765Z,98208.67
2018-12-17T05:33:58.694Z,98207.61
2018-12-17T05:36:27.551Z,98206.25
2018-12-17T05:38:56.496Z,98212.16
2018-12-17T05:41:25.370Z,98218.32
2018-12-17T05:43:54.266Z,98220.20
2018-12-17T05:46:23.124Z,98224.72
2018-12-17T05:48:52.038Z,98241.05
2018-12-17T05:51:20.936Z,98246.14
2018-12-17T05:53:49.865Z,98244.00
2018-12-17T05:56:18.741Z,98245.61
2018-12-17T05:58:47.647Z,98244.27
2018-12-17T06:01:16.627Z,98248.81
2018-12-17T06:03:45.535Z,98258.45
2018-12-17T06:06:14.484Z,98266.49
2018-12-17T06:08:43.387Z,98260.88
2018-12-17T06:11:12.231Z,98263.81
2018-12-17T06:13:41.185Z,98279.88
2018-12-17T06:16:10.083Z,98283.90
2018-12-17T06:18:39.775Z,98287.11
2018-12-17T06:21:08.711Z,98295.95
2018-12-17T06:23:37.634Z,98295.95
2018-12-17T06:26:06.815Z,98294.61
2018-12-17T06:28:35.679Z,98305.86
2018-12-17T06:31:04.563Z,98311.25
2018-12-17T06:33:33.656Z,98306.70
2018-12-17T06:36:02.455Z,98315.53
2018-12-17T06:38:31.316Z,98317.41
2018-12-17T06:41:00.591Z,98326.25
2018-12-17T06:43:29.442Z,98329.20
2018-12-17T06:45:58.297Z,98335.89
2018-12-17T06:48:27.162Z,98335.90
2018-12-17T06:50:56.038Z,98343.67
2018-12-17T06:53:24.928Z,98346.35
2018-12-17T06:55:53.830Z,98344.73
2018-12-17T06:58:23.118Z,98351.42
2018-12-17T07:00:51.995Z,98349.30
2018-12-17T07:03:20.869Z,98366.17
2018-12-17T07:05:49.765Z,98366.18
2018-12-17T07:08:19.081Z,98373.13
2018-12-17T07:10:48.255Z,98373.12
2018-12-17T07:13:17.154Z,98383.05
2018-12-17T07:15:46.011Z,98387.07
2018-12-17T07:18:14.993Z,98388.95
2018-12-17T07:20:43.859Z,98392.70
2018-12-17T07:23:12.726Z,98396.45
2018-12-17T07:25:41.588Z,98404.49
2018-12-17T07:28:10.502Z,98405.08
2018-12-17T07:30:39.455Z,98412.89
2018-12-17T07:33:08.755Z,98412.89
2018-12-17T07:35:37.673Z,98415.03
2018-12-17T07:38:07.698Z,98409.94
2018-12-17T07:40:36.598Z,98417.17
2018-12-17T07:43:05.452Z,98424.42
2018-12-17T07:45:34.303Z,98435.14
2018-12-17T07:48:03.274Z,98431.92
2018-12-17T07:50:32.136Z,98440.77
2018-12-17T07:53:00.958Z,98437.55
2018-12-17T07:55:29.826Z,98439.45
2018-12-17T07:57:59.730Z,98449.91
2018-12-17T08:00:28.661Z,98453.92
2018-12-17T08:02:57.524Z,98455.27
2018-12-17T08:05:26.372Z,98455.80
2018-12-17T08:07:55.312Z,98455.23
2018-12-17T08:10:24.158Z,98464.89
2018-12-17T08:12:53.033Z,98462.99
2018-12-17T08:15:21.856Z,98466.20
2018-12-17T08:18:01.865Z,98474.81
2018-12-17T08:20:30.772Z,98478.04
2018-12-17T08:22:59.631Z,98478.83
2018-12-17T08:25:28.515Z,98489.84
2018-12-17T08:27:57.345Z,98487.42
2018-12-17T08:30:26.203Z,98487.96
2018-12-17T08:32:55.142Z,98499.78
2018-12-17T08:35:23.981Z,98497.09
2018-12-17T08:37:52.900Z,98499.52
2018-12-17T08:40:21.767Z,98500.06
2018-12-17T08:42:50.615Z,98499.52
2018-12-17T08:45:19.451Z,98511.62
2018-12-17T08:47:48.363Z,98509.98
2018-12-17T08:50:17.231Z,98510.00
2018-12-17T08:52:46.551Z,98510.00
2018-12-17T08:55:15.434Z,98515.37
2018-12-17T08:57:44.343Z,98526.09
2018-12-17T09:00:13.428Z,98526.64
2018-12-17T09:02:42.377Z,98524.19
2018-12-17T09:05:11.318Z,98526.59
2018-12-17T09:07:40.226Z,98525.50
2018-12-17T09:10:10.164Z,98531.41
2018-12-17T09:12:39.114Z,98522.78
2018-12-17T09:15:08.058Z,98527.89
2018-12-17T09:17:37.860Z,98532.22
2018-12-17T09:20:07.925Z,98533.28
2018-12-17T09:22:36.798Z,98542.15
2018-12-17T09:25:06.517Z,98546.22
2018-12-17T09:27:35.412Z,98541.34
2018-12-17T09:30:05.609Z,98539.69
2018-12-17T09:32:35.242Z,98541.58
2018-12-17T09:35:04.200Z,98548.80
2018-12-17T09:37:33.049Z,98542.09
2018-12-17T09:40:01.930Z,98532.69
2018-12-17T09:42:31.790Z,98541.84
2018-12-17T09:45:00.694Z,98540.21
2018-12-17T09:47:30.324Z,98546.12
2018-12-17T09:49:59.210Z,98544.73
2018-12-17T09:52:28.042Z,98544.84
2018-12-17T09:54:57.091Z,98540.08
2018-12-17T09:57:25.955Z,98535.33
2018-12-17T09:59:54.869Z,98551.25
2018-12-17T10:02:23.688Z,98548.56
2018-12-17T10:04:52.515Z,98547.34
2018-12-17T10:07:21.355Z,98536.57
2018-12-17T10:09:50.207Z,98542.45
2018-12-17T10:12:19.190Z,98544.01
2018-12-17T10:14:48.126Z,98550.80
2018-12-17T10:17:16.956Z,98545.97
2018-12-17T10:19:45.785Z,98549.48
2018-12-17T10:22:14.696Z,98548.98
2018-12-17T10:24:43.539Z,98544.75
2018-12-17T10:27:12.396Z,98541.21
2018-12-17T10:29:41.364Z,98553.84
2018-12-17T10:32:10.194Z,98558.45
2018-12-17T10:34:39.025Z,98553.27
2018-12-17T10:37:07.896Z,98549.20
2018-12-17T10:39:36.733Z,98546.00
2018-12-17T10:42:05.692Z,98550.55
2018-12-17T10:44:36.531Z,98554.00
2018-12-17T10:47:05.415Z,98551.00
2018-12-17T10:49:35.451Z,98554.00
2018-12-17T10:52:04.319Z,98554.16
2018-12-17T10:54:33.185Z,98557.81
2018-12-17T10:57:02.009Z,98561.87
2018-12-17T10:59:30.854Z,98551.38
2018-12-17T11:02:04.938Z,98552.91
2018-12-17T11:04:41.742Z,98547.16
2018-12-17T11:07:10.566Z,98552.72
2018-12-17T11:09:39.682Z,98554.34
2018-12-17T11:12:08.545Z,98555.65
2018-12-17T11:14:37.462Z,98562.53
2018-12-17T11:17:06.364Z,98550.89
2018-12-17T11:19:35.352Z,98542.77
2018-12-17T11:22:04.229Z,98540.01
2018-12-17T11:24:33.118Z,98557.30
2018-12-17T11:27:02.013Z,98559.59
2018-12-17T11:29:31.421Z,98567.37
2018-12-17T11:32:00.352Z,98580.63
2018-12-17T11:34:29.228Z,98575.97
2018-12-17T11:37:01.200Z,98574.95
2018-12-17T11:39:31.838Z,98567.31
2018-12-17T11:42:00.749Z,98570.39
2018-12-17T11:44:29.607Z,98577.66
2018-12-17T11:46:58.495Z,98575.20
2018-12-17T11:49:27.403Z,98586.39
2018-12-17T11:51:57.212Z,98592.06
2018-12-17T11:54:26.073Z,98579.40
2018-12-17T11:59:14.115Z,98589.95
2018-12-17T12:01:44.934Z,98590.42
2018-12-17T12:04:13.857Z,98579.59
2018-12-17T12:06:42.675Z,98563.44
2018-12-17T12:09:13.519Z,98579.06
2018-12-17T12:11:43.421Z,98584.23
2018-12-17T12:14:12.287Z,98586.91
2018-12-17T12:16:41.253Z,98596.66
2018-12-17T12:19:10.082Z,98606.63
2018-12-17T12:21:38.995Z,98622.00
2018-12-17T12:24:07.882Z,98619.63
2018-12-17T12:26:36.711Z,98612.61
2018-12-17T12:29:05.558Z,98621.80
2018-12-17T12:31:34.462Z,98616.72
2018-12-17T12:34:03.490Z,98618.88
2018-12-17T12:36:32.390Z,98615.83
2018-12-17T12:39:01.398Z,98619.59
2018-12-17T12:41:32.366Z,98613.69
2018-12-17T12:44:08.596Z,98627.91
2018-12-17T12:46:32.581Z,98634.59
2018-12-17T12:49:01.467Z,98633.10
2018-12-17T12:51:32.831Z,98639.78
2018-12-17T12:54:01.271Z,98641.95
2018-12-17T12:56:30.361Z,98633.61
2018-12-17T12:58:59.262Z,98634.34
2018-12-17T13:01:28.121Z,98635.42
2018-12-17T13:03:57.034Z,98631.87
2018-12-17T13:06:25.935Z,98638.67
2018-12-17T13:08:54.833Z,98645.94
2018-12-17T13:11:23.695Z,98645.67
2018-12-17T13:13:52.610Z,98644.30
2018-12-17T13:16:21.528Z,98650.77
2018-12-17T13:18:50.385Z,98656.97
2018-12-17T13:21:19.315Z,98652.75
2018-12-17T13:23:48.191Z,98645.75
2018-12-17T13:26:17.065Z,98657.38
2018-12-17T13:28:45.911Z,98665.11
2018-12-17T13:31:14.918Z,98677.23
2018-12-17T13:33:43.898Z,98665.39
2018-12-17T13:36:12.794Z,98664.05
2018-12-17T13:38:41.712Z,98669.98
2018-12-17T13:41:10.598Z,98671.86
2018-12-17T13:43:39.462Z,98670.50
2018-12-17T13:46:08.310Z,98672.41
2018-12-17T13:48:37.178Z,98675.09
2018-12-17T13:51:11.420Z,98670.80
2018-12-17T13:53:40.259Z,98674.84
2018-12-17T13:56:09.114Z,98675.93
2018-12-17T13:58:37.979Z,98677.55
2018-12-17T14:01:06.934Z,98678.91
2018-12-17T14:03:35.824Z,98678.90
2018-12-17T14:06:04.813Z,98678.09
2018-12-17T14:08:33.689Z,98679.44
2018-12-17T14:11:02.614Z,98691.53
2018-12-17T14:13:31.559Z,98694.49
2018-12-17T14:16:05.711Z,98693.42
2018-12-17T14:19:41.441Z,98703.37
2018-12-17T14:22:10.281Z,98707.14
2018-12-17T14:24:39.129Z,98712.52
2018-12-17T14:27:08.067Z,98710.09
2018-12-17T14:29:36.917Z,98717.36
2018-12-17T14:32:05.831Z,98724.04
2018-12-17T14:34:34.679Z,98731.33
2018-12-17T14:37:03.615Z,98721.39
2018-12-17T14:39:32.475Z,98733.17
2018-12-17T14:42:01.345Z,98738.01
2018-12-17T14:44:34.640Z,98738.27
2018-12-17T14:47:03.752Z,98733.71
2018-12-17T14:49:32.655Z,98735.05
2018-12-17T14:52:02.647Z,98742.57
2018-12-17T14:54:31.495Z,98750.36
2018-12-17T14:57:00.330Z,98748.47
2018-12-17T14:59:29.243Z,98749.02
2018-12-17T15:01:58.099Z,98741.75
2018-12-17T15:04:26.990Z,98759.44
2018-12-17T15:06:55.831Z,98756.75
2018-12-17T15:09:24.695Z,98764.53
2018-12-17T15:11:53.590Z,98768.83
2018-12-17T15:14:22.441Z,98763.72
2018-12-17T15:16:51.357Z,98767.99
2018-12-17T15:19:20.191Z,98780.87
2018-12-17T15:21:49.038Z,98778.70
2018-12-17T15:24:17.914Z,98788.09
2018-12-17T15:26:46.826Z,98789.98
2018-12-17T15:29:15.667Z,98778.70
2018-12-17T15:31:44.559Z,98791.84
2018-12-17T15:34:13.502Z,98824.48
2018-12-17T15:36:42.332Z,98814.55
2018-12-17T15:39:11.207Z,98819.13
2018-12-17T15:41:40.059Z,98830.41
2018-12-17T15:44:08.917Z,98839.56
2018-12-17T15:46:37.751Z,98840.45
2018-12-17T15:49:06.883Z,98841.27
2018-12-17T15:51:36.404Z,98842.05
2018-12-17T15:54:05.465Z,98845.54
2018-12-17T15:56:34.291Z,98841.27
2018-12-17T15:59:03.171Z,98853.95
2018-12-17T16:01:32.102Z,98853.09
2018-12-17T16:04:01.079Z,98852.06
2018-12-17T16:06:30.005Z,98865.47
2018-12-17T16:08:59.026Z,98856.70
2018-12-17T16:11:27.982Z,98861.80
2018-12-17T16:13:56.911Z,98866.89
2018-12-17T16:16:25.862Z,98863.36
2018-12-17T16:18:54.768Z,98860.40
2018-12-17T16:21:23.616Z,98867.07
2018-12-17T16:23:52.466Z,98864.11
2018-12-17T16:26:21.349Z,98865.98
2018-12-17T16:28:50.249Z,98865.17
2018-12-17T16:31:19.119Z,98858.75
2018-12-17T16:33:48.061Z,98857.12
2018-12-17T16:36:16.909Z,98856.84
2018-12-17T16:38:45.773Z,98868.87
2018-12-17T16:41:15.139Z,98863.27
2018-12-17T16:43:43.987Z,98871.85
2018-12-17T16:46:12.853Z,98869.70
2018-12-17T16:48:41.783Z,98894.32
2018-12-17T16:51:10.813Z,98888.52
2018-12-17T16:53:39.707Z,98889.84
2018-12-17T16:56:08.603Z,98896.55
2018-12-17T16:58:37.639Z,98895.47
2018-12-17T17:01:06.610Z,98891.73
2018-12-17T17:03:35.431Z,98893.05
2018-12-17T17:06:04.371Z,98902.42
2018-12-17T17:08:33.291Z,98918.28
2018-12-17T17:11:02.299Z,98917.20
2018-12-17T17:13:31.280Z,98915.84
2018-12-17T17:16:00.610Z,98917.50
2018-12-17T17:18:29.538Z,98924.23
2018-12-17T17:20:58.366Z,98926.31
2018-12-17T17:23:28.362Z,98933.59
2018-12-17T17:25:57.218Z,98931.47
2018-12-17T17:28:26.132Z,98927.70
2018-12-17T17:30:55.026Z,98939.78
2018-12-17T17:33:26.042Z,98932.27
2018-12-17T17:35:54.981Z,98940.07
2018-12-17T17:38:23.833Z,98950.27
2018-12-17T17:40:52.655Z,98948.95
2018-12-17T17:43:21.648Z,98953.30
2018-12-17T17:45:50.522Z,98949.77
2018-12-17T17:48:19.403Z,98946.56
2018-12-17T17:50:48.431Z,98943.84
2018-12-17T17:53:17.255Z,98944.65
2018-12-17T17:55:46.095Z,98947.86
2018-12-17T17:58:14.933Z,98955.41
2018-12-17T18:00:43.771Z,98952.44
2018-12-17T18:03:12.647Z,98958.08
2018-12-17T18:05:41.503Z,98964.48
2018-12-17T18:08:10.425Z,98969.05
2018-12-17T18:10:39.323Z,98961.27
2018-12-17T18:13:08.350Z,98957.56
2018-12-17T18:15:37.219Z,98970.95
2018-12-17T18:18:06.151Z,98972.27
2018-12-17T18:20:34.998Z,98976.59
2018-12-17T18:23:04.084Z,98978.45
2018-12-17T18:25:33.512Z,98974.92
2018-12-17T18:28:02.596Z,98980.86
2018-12-17T18:30:31.469Z,98981.41
2018-12-17T18:33:03.326Z,98985.63
2018-12-17T18:35:32.320Z,98988.07
2018-12-17T18:38:01.408Z,98985.95
2018-12-17T18:40:30.258Z,98990.78
2018-12-17T18:42:59.897Z,98993.44
2018-12-17T18:45:29.014Z,98987.02
2018-12-17T18:47:58.193Z,98992.42
2018-12-17T18:50:27.193Z,98993.73
2018-12-17T18:52:56.135Z,99006.34
2018-12-17T18:55:25.159Z,99009.29
2018-12-17T18:57:54.155Z,99010.66
2018-12-17T19:00:23.199Z,99019.52
2018-12-17T19:02:52.325Z,99025.95
2018-12-17T19:05:27.944Z,99025.41
2018-12-17T19:07:56.906Z,99026.72
2018-12-17T19:10:30.267Z,99038.02
2018-12-17T19:12:59.323Z,99035.66
2018-12-17T19:15:28.706Z,99033.47
2018-12-17T19:17:57.680Z,99027.27
2018-12-17T19:20:26.878Z,99037.98
2018-12-17T19:22:55.807Z,99038.01
2018-12-17T19:25:24.846Z,99045.18
2018-12-17T19:27:54.522Z,99040.41
2018-12-17T19:30:23.556Z,99045.80
2018-12-17T19:32:52.394Z,99038.78
2018-12-17T19:35:21.430Z,99041.23
2018-12-17T19:37:50.552Z,99050.88
2018-12-17T19:40:19.482Z,99055.11
2018-12-17T19:42:48.350Z,99052.41
2018-12-17T19:45:17.284Z,99056.23
2018-12-17T19:47:46.350Z,99053.20
2018-12-17T19:50:15.349Z,99063.90
2018-12-17T19:52:44.320Z,99058.75
2018-12-17T19:55:13.416Z,99066.21
2018-12-17T19:57:42.523Z,99068.33
2018-12-17T20:00:11.477Z,99066.47
2018-12-17T20:02:47.038Z,99065.94
2018-12-17T20:05:13.368Z,99073.89
2018-12-17T20:07:42.347Z,99066.66
2018-12-17T20:10:15.626Z,99076.89
2018-12-17T20:12:44.595Z,99076.36
2018-12-17T20:15:13.545Z,99078.45
2018-12-17T20:17:42.378Z,99082.91
2018-12-17T20:20:11.328Z,99074.55
2018-12-17T20:22:41.217Z,99082.86
2018-12-17T20:25:10.072Z,99079.11
2018-12-17T20:27:38.999Z,99072.92
2018-12-17T20:30:09.635Z,99074.29
2018-12-17T20:32:39.015Z,99089.80
2018-12-17T20:35:08.664Z,99096.95
2018-12-17T20:37:37.588Z,99093.20
2018-12-17T20:40:08.227Z,99101.50
2018-12-17T20:42:37.186Z,99107.98
2018-12-17T20:45:07.919Z,99108.50
2018-12-17T20:47:37.914Z,99103.61
2018-12-17T20:50:07.596Z,99105.55
2018-12-17T20:52:36.504Z,99107.98
2018-12-17T20:55:05.618Z,99102.31
2018-12-17T20:57:34.530Z,99112.68
2018-12-17T21:00:03.948Z,99107.59
2018-12-17T21:02:34.761Z,99108.09
2018-12-17T21:05:03.966Z,99109.77
2018-12-17T21:07:33.203Z,99113.41
2018-12-17T21:10:02.046Z,99106.59
2018-12-17T21:12:30.935Z,99108.77
2018-12-17T21:14:59.824Z,99110.14
2018-12-17T21:17:28.922Z,99111.55
2018-12-17T21:19:57.773Z,99105.55
2018-12-17T21:22:26.692Z,99109.58
2018-12-17T21:24:55.639Z,99115.98
2018-12-17T21:27:24.837Z,99120.80
2018-12-17T21:29:53.660Z,99129.52
2018-12-17T21:32:22.616Z,99127.84
2018-12-17T21:34:51.523Z,99129.45
2018-12-17T21:37:20.702Z,99134.25
2018-12-17T21:39:49.574Z,99130.73
2018-12-17T21:42:18.470Z,99134.22
2018-12-17T21:44:47.418Z,99131.59
2018-12-17T21:47:16.436Z,99133.48
2018-12-17T21:49:45.331Z,99132.82
2018-12-17T21:52:14.196Z,99143.37
2018-12-17T21:54:43.266Z,99154.45
2018-12-17T21:57:12.133Z,99157.21
2018-12-17T21:59:41.079Z,99163.27
2018-12-17T22:02:10.011Z,99168.11
2018-12-17T22:04:38.937Z,99171.75
2018-12-17T22:07:07.848Z,99164.43
2018-12-17T22:09:36.786Z,99172.41
2018-12-17T22:12:05.787Z,99168.38
2018-12-17T22:14:34.644Z,99174.81
2018-12-17T22:17:03.857Z,99177.22
2018-12-17T22:19:32.767Z,99173.44
2018-12-17T22:22:01.728Z,99169.97
2018-12-17T22:24:30.642Z,99170.89
2018-12-17T22:26:59.476Z,99170.25
2018-12-17T22:29:28.434Z,99179.63
2018-12-17T22:31:57.330Z,99180.69
2018-12-17T22:34:26.234Z,99174.00
2018-12-17T22:36:55.142Z,99171.57
2018-12-17T22:39:24.082Z,99178.28
2018-12-17T22:41:52.937Z,99175.04
2018-12-17T22:44:21.777Z,99172.86
2018-12-17T22:46:50.700Z,99181.47
2018-12-17T22:49:19.675Z,99173.75
2018-12-17T22:51:48.588Z,99173.27
2018-12-17T22:54:17.475Z,99166.05
2018-12-17T22:56:46.408Z,99164.97
2018-12-17T22:59:15.230Z,99153.89
2018-12-17T23:01:44.162Z,99153.82
2018-12-17T23:04:13.030Z,99155.77
2018-12-17T23:06:41.846Z,99157.42
2018-12-17T23:09:09.736Z,99163.54
2018-12-17T23:11:57.354Z,99166.56
2018-12-17T23:14:38.565Z,99167.12
2018-12-17T23:17:18.904Z,99171.13
2018-12-17T23:19:49.743Z,99171.31
2018-12-17T23:22:20.995Z,99175.15
2018-12-17T23:24:51.993Z,99175.70
2018-12-17T23:27:20.981Z,99177.55
2018-12-17T23:29:49.859Z,99181.40
2018-12-17T23:32:18.787Z,99181.62
2018-12-17T23:34:47.679Z,99178.99
2018-12-17T23:37:16.946Z,99179.48
2018-12-17T23:39:45.787Z,99183.20
2018-12-17T23:42:14.672Z,99179.70
2018-12-17T23:44:43.562Z,99174.03
2018-12-17T23:47:12.482Z,99173.37
2018-12-17T23:49:41.311Z,99168.78
2018-12-17T23:52:10.254Z,99159.36
2018-12-17T23:54:39.235Z,99166.56
2018-12-17T23:57:08.058Z,99163.63
2018-12-17T23:59:36.923Z,99166.20
